createdAt,value
2023-05-10T00:00:09.220Z,15.19
2023-05-10T00:01:09.508Z,15.23
2023-05-10T00:02:09.851Z,15.27
2023-05-10T00:03:10.228Z,15.33
2023-05-10T00:04:10.400Z,15.31
2023-05-10T00:05:10.704Z,15.31
2023-05-10T00:06:11.049Z,15.21
2023-05-10T00:07:11.250Z,15.13
2023-05-10T00:08:11.517Z,15.19
2023-05-10T00:09:11.786Z,15.26
2023-05-10T00:10:12.055Z,15.27
2023-05-10T00:11:12.344Z,15.30
2023-05-10T00:12:12.717Z,15.19
2023-05-10T00:13:13.062Z,15.13
2023-05-10T00:14:13.266Z,15.15
2023-05-10T00:15:13.540Z,15.15
2023-05-10T00:16:13.824Z,15.19
2023-05-10T00:17:14.102Z,15.24
2023-05-10T00:18:14.404Z,15.19
2023-05-10T00:19:14.681Z,15.12
2023-05-10T00:20:15.174Z,15.12
2023-05-10T00:21:15.206Z,15.12
2023-05-10T00:22:15.475Z,14.98
2023-05-10T00:23:15.817Z,14.91
2023-05-10T00:24:16.035Z,14.93
2023-05-10T00:25:16.424Z,14.99
2023-05-10T00:26:16.627Z,14.99
2023-05-10T00:27:16.954Z,14.98
2023-05-10T00:28:17.161Z,15.02
2023-05-10T00:29:17.444Z,14.88
2023-05-10T00:30:17.991Z,14.93
2023-05-10T00:31:18.019Z,14.94
2023-05-10T00:32:18.375Z,14.84
2023-05-10T00:33:18.649Z,14.78
2023-05-10T00:34:18.882Z,14.80
2023-05-10T00:35:19.171Z,14.75
2023-05-10T00:36:19.467Z,14.83
2023-05-10T00:37:19.725Z,14.90
2023-05-10T00:38:20.022Z,14.93
2023-05-10T00:39:20.328Z,14.94
2023-05-10T00:40:20.628Z,14.90
2023-05-10T00:41:20.840Z,14.84
2023-05-10T00:42:21.153Z,14.83
2023-05-10T00:43:21.502Z,14.83
2023-05-10T00:44:21.754Z,14.83
2023-05-10T00:45:22.010Z,14.78
2023-05-10T00:46:22.318Z,14.75
2023-05-10T00:47:22.660Z,14.67
2023-05-10T00:48:22.926Z,14.69
2023-05-10T00:49:23.214Z,14.69
2023-05-10T00:50:23.575Z,14.71
2023-05-10T00:51:23.802Z,14.74
2023-05-10T00:52:24.129Z,14.75
2023-05-10T00:53:24.566Z,14.78
2023-05-10T00:54:24.629Z,14.74
2023-05-10T00:55:24.919Z,14.71
2023-05-10T00:56:25.229Z,14.65
2023-05-10T00:57:25.524Z,14.67
2023-05-10T00:58:25.797Z,14.67
2023-05-10T00:59:26.088Z,14.72
2023-05-10T01:00:26.382Z,14.74
2023-05-10T01:01:26.772Z,14.87
2023-05-10T01:02:27.027Z,14.90
2023-05-10T01:03:27.199Z,14.88
2023-05-10T01:04:27.557Z,14.84
2023-05-10T01:05:27.728Z,14.88
2023-05-10T01:06:27.991Z,14.98
2023-05-10T01:07:28.280Z,14.99
2023-05-10T01:13:33.162Z,14.94
2023-05-10T01:14:33.389Z,15.01
2023-05-10T01:15:33.660Z,14.93
2023-05-10T01:16:34.053Z,14.93
2023-05-10T01:17:34.333Z,15.01
2023-05-10T01:18:34.610Z,15.02
2023-05-10T01:19:34.853Z,15.03
2023-05-10T01:20:35.170Z,15.05
2023-05-10T01:21:35.402Z,15.06
2023-05-10T01:22:35.780Z,14.98
2023-05-10T01:23:36.011Z,14.91
2023-05-10T01:24:36.214Z,14.84
2023-05-10T01:25:36.544Z,14.86
2023-05-10T01:26:36.770Z,14.81
2023-05-10T01:27:37.382Z,14.86
2023-05-10T01:28:37.307Z,14.87
2023-05-10T01:29:37.631Z,14.87
2023-05-10T01:30:37.870Z,14.83
2023-05-10T01:31:38.200Z,14.86
2023-05-10T01:32:38.503Z,14.87
2023-05-10T01:33:38.795Z,14.86
2023-05-10T01:34:39.022Z,14.86
2023-05-10T01:35:39.359Z,14.81
2023-05-10T01:36:39.589Z,14.86
2023-05-10T01:37:39.883Z,14.91
2023-05-10T01:38:40.243Z,14.95
2023-05-10T01:39:40.542Z,14.93
2023-05-10T01:40:40.812Z,14.88
2023-05-10T01:41:41.080Z,14.84
2023-05-10T01:42:41.392Z,14.86
2023-05-10T01:43:41.824Z,14.90
2023-05-10T01:44:41.979Z,14.95
2023-05-10T01:45:42.273Z,14.93
2023-05-10T01:46:42.663Z,14.95
2023-05-10T01:47:42.920Z,14.95
2023-05-10T01:48:43.254Z,14.98
2023-05-10T01:49:43.433Z,14.95
2023-05-10T01:50:43.726Z,15.01
2023-05-10T01:51:43.998Z,15.02
2023-05-10T01:52:44.400Z,15.01
2023-05-10T01:53:44.641Z,14.98
2023-05-10T01:54:44.867Z,14.93
2023-05-10T01:55:45.175Z,14.90
2023-05-10T01:56:45.541Z,14.88
2023-05-10T01:57:45.779Z,14.71
2023-05-10T01:58:46.058Z,14.68
2023-05-10T01:59:46.449Z,14.71
2023-05-10T02:00:46.683Z,14.74
2023-05-10T02:01:46.947Z,14.75
2023-05-10T02:02:47.293Z,14.78
2023-05-10T02:03:47.645Z,14.69
2023-05-10T02:04:47.840Z,14.74
2023-05-10T02:05:48.136Z,14.72
2023-05-10T02:06:48.418Z,14.74
2023-05-10T02:07:48.851Z,14.68
2023-05-10T02:08:48.959Z,14.69
2023-05-10T02:09:49.240Z,14.62
2023-05-10T02:10:49.530Z,14.54
2023-05-10T02:11:49.950Z,14.53
2023-05-10T02:12:50.115Z,14.50
2023-05-10T02:13:50.397Z,14.47
2023-05-10T02:14:50.621Z,14.46
2023-05-10T02:15:50.950Z,14.44
2023-05-10T02:16:51.279Z,14.37
2023-05-10T02:17:51.481Z,14.37
2023-05-10T02:18:51.775Z,14.32
2023-05-10T02:19:52.090Z,14.38
2023-05-10T02:20:52.352Z,14.35
2023-05-10T02:21:52.649Z,14.34
2023-05-10T02:22:52.961Z,14.39
2023-05-10T02:23:53.238Z,14.38
2023-05-10T02:24:53.547Z,14.39
2023-05-10T02:25:53.814Z,14.43
2023-05-10T02:26:54.051Z,14.44
2023-05-10T02:27:54.792Z,14.42
2023-05-10T02:28:54.691Z,14.39
2023-05-10T02:29:54.956Z,14.52
2023-05-10T02:30:55.222Z,14.53
2023-05-10T02:31:55.605Z,14.54
2023-05-10T02:32:55.841Z,14.50
2023-05-10T02:33:56.139Z,14.50
2023-05-10T02:34:56.423Z,14.52
2023-05-10T02:35:56.696Z,14.50
2023-05-10T02:36:56.926Z,14.57
2023-05-10T02:37:57.216Z,14.62
2023-05-10T02:38:57.506Z,14.65
2023-05-10T02:39:57.786Z,14.64
2023-05-10T02:40:58.116Z,14.64
2023-05-10T02:41:58.382Z,14.64
2023-05-10T02:42:58.665Z,14.60
2023-05-10T02:43:58.965Z,14.54
2023-05-10T02:44:59.243Z,14.57
2023-05-10T02:45:59.553Z,14.54
2023-05-10T02:46:59.855Z,14.56
2023-05-10T02:48:00.169Z,14.60
2023-05-10T02:49:00.393Z,14.57
2023-05-10T02:50:00.699Z,14.47
2023-05-10T02:51:00.974Z,14.47
2023-05-10T02:52:01.361Z,14.54
2023-05-10T02:53:01.532Z,14.56
2023-05-10T02:54:01.865Z,14.56
2023-05-10T02:55:02.175Z,14.46
2023-05-10T02:56:02.381Z,14.44
2023-05-10T02:57:02.770Z,14.42
2023-05-10T02:58:03.216Z,14.42
2023-05-10T02:59:03.295Z,14.46
2023-05-10T03:00:03.559Z,14.42
2023-05-10T03:01:03.905Z,14.38
2023-05-10T03:02:04.149Z,14.38
2023-05-10T03:03:04.451Z,14.34
2023-05-10T03:04:04.743Z,14.35
2023-05-10T03:05:05.008Z,14.38
2023-05-10T03:06:05.309Z,14.46
2023-05-10T03:07:05.607Z,14.53
2023-05-10T03:08:05.953Z,14.54
2023-05-10T03:09:06.241Z,14.56
2023-05-10T03:10:06.529Z,14.57
2023-05-10T03:11:06.838Z,14.61
2023-05-10T03:12:07.200Z,14.57
2023-05-10T03:13:07.420Z,14.61
2023-05-10T03:14:07.654Z,14.57
2023-05-10T03:15:07.916Z,14.61
2023-05-10T03:16:08.401Z,14.62
2023-05-10T03:17:08.489Z,14.62
2023-05-10T03:18:08.769Z,14.64
2023-05-10T03:19:09.099Z,14.65
2023-05-10T03:20:09.351Z,14.64
2023-05-10T03:21:09.580Z,14.65
2023-05-10T03:22:09.845Z,14.68
2023-05-10T03:23:10.044Z,14.68
2023-05-10T03:24:10.402Z,14.69
2023-05-10T03:25:10.688Z,14.69
2023-05-10T03:26:10.981Z,14.67
2023-05-10T03:27:11.396Z,14.56
2023-05-10T03:28:11.618Z,14.56
2023-05-10T03:29:11.951Z,14.53
2023-05-10T03:30:12.234Z,14.57
2023-05-10T03:31:12.596Z,14.61
2023-05-10T03:32:12.786Z,14.61
2023-05-10T03:33:13.254Z,14.60
2023-05-10T03:34:13.402Z,14.61
2023-05-10T03:35:13.668Z,14.62
2023-05-10T03:36:14.045Z,14.50
2023-05-10T03:37:14.188Z,14.49
2023-05-10T03:38:14.487Z,14.52
2023-05-10T03:39:14.765Z,14.56
2023-05-10T03:40:15.247Z,14.57
2023-05-10T03:41:15.456Z,14.65
2023-05-10T03:42:15.581Z,14.64
2023-05-10T03:43:15.858Z,14.60
2023-05-10T03:44:16.165Z,14.64
2023-05-10T03:45:16.383Z,14.53
2023-05-10T03:46:16.669Z,14.47
2023-05-10T03:47:16.995Z,14.46
2023-05-10T03:48:17.282Z,14.47
2023-05-10T03:49:17.422Z,14.46
2023-05-10T03:50:17.924Z,14.44
2023-05-10T03:51:18.013Z,14.50
2023-05-10T03:52:18.292Z,14.52
2023-05-10T03:53:18.666Z,14.53
2023-05-10T03:54:18.851Z,14.54
2023-05-10T03:55:19.136Z,14.54
2023-05-10T03:56:19.427Z,14.50
2023-05-10T03:57:19.770Z,14.44
2023-05-10T03:58:20.038Z,14.39
2023-05-10T03:59:20.229Z,14.34
2023-05-10T04:00:20.573Z,14.31
2023-05-10T04:01:20.847Z,14.29
2023-05-10T04:02:21.194Z,14.28
2023-05-10T04:03:21.574Z,14.29
2023-05-10T04:04:21.832Z,14.29
2023-05-10T04:05:22.037Z,14.21
2023-05-10T04:06:22.255Z,14.21
2023-05-10T04:07:22.611Z,14.21
2023-05-10T04:08:22.913Z,14.25
2023-05-10T04:09:23.209Z,14.28
2023-05-10T04:10:23.530Z,14.25
2023-05-10T04:11:23.920Z,14.28
2023-05-10T04:12:24.107Z,14.28
2023-05-10T04:13:24.534Z,14.24
2023-05-10T04:14:24.701Z,14.29
2023-05-10T04:15:25.000Z,14.24
2023-05-10T04:16:25.385Z,14.31
2023-05-10T04:17:25.602Z,14.32
2023-05-10T04:18:25.900Z,14.34
2023-05-10T04:19:26.219Z,14.42
2023-05-10T04:20:26.500Z,14.43
2023-05-10T04:21:26.791Z,14.47
2023-05-10T04:22:27.187Z,14.54
2023-05-10T04:23:27.379Z,14.50
2023-05-10T04:24:27.682Z,14.52
2023-05-10T04:25:28.047Z,14.57
2023-05-10T04:26:28.235Z,14.61
2023-05-10T04:27:28.535Z,14.57
2023-05-10T04:28:28.889Z,14.54
2023-05-10T04:29:29.086Z,14.50
2023-05-10T04:30:29.357Z,14.53
2023-05-10T04:31:29.779Z,14.53
2023-05-10T04:32:29.955Z,14.50
2023-05-10T04:33:30.254Z,14.49
2023-05-10T04:34:30.584Z,14.50
2023-05-10T04:35:30.901Z,14.50
2023-05-10T04:36:31.189Z,14.47
2023-05-10T04:37:31.533Z,14.44
2023-05-10T04:38:31.759Z,14.44
2023-05-10T04:39:32.328Z,14.49
2023-05-10T04:40:32.591Z,14.47
2023-05-10T04:41:32.647Z,14.46
2023-05-10T04:42:33.009Z,14.47
2023-05-10T04:43:33.916Z,14.49
2023-05-10T04:44:33.460Z,14.50
2023-05-10T04:45:33.871Z,14.49
2023-05-10T04:46:34.050Z,14.50
2023-05-10T04:47:34.361Z,14.47
2023-05-10T04:48:34.827Z,14.43
2023-05-10T04:49:34.924Z,14.43
2023-05-10T04:50:35.318Z,14.42
2023-05-10T04:51:35.579Z,14.39
2023-05-10T04:52:35.781Z,14.42
2023-05-10T04:53:36.135Z,14.42
2023-05-10T04:54:36.436Z,14.43
2023-05-10T04:55:36.832Z,14.46
2023-05-10T04:56:37.128Z,14.47
2023-05-10T04:57:37.290Z,14.47
2023-05-10T04:58:37.668Z,14.43
2023-05-10T04:59:37.857Z,14.46
2023-05-10T05:00:38.381Z,14.47
2023-05-10T05:01:38.573Z,14.46
2023-05-10T05:02:38.896Z,14.50
2023-05-10T05:03:39.166Z,14.53
2023-05-10T05:04:39.355Z,14.56
2023-05-10T05:05:39.619Z,14.53
2023-05-10T05:06:39.823Z,14.61
2023-05-10T05:07:40.252Z,14.64
2023-05-10T05:08:40.408Z,14.62
2023-05-10T05:09:41.597Z,14.62
2023-05-10T05:10:41.832Z,14.60
2023-05-10T05:11:41.288Z,14.61
2023-05-10T05:12:41.711Z,14.62
2023-05-10T05:13:41.833Z,14.57
2023-05-10T05:14:42.170Z,14.61
2023-05-10T05:15:42.456Z,14.64
2023-05-10T05:16:42.880Z,14.64
2023-05-10T05:17:43.152Z,14.65
2023-05-10T05:18:43.356Z,14.72
2023-05-10T05:19:43.683Z,14.74
2023-05-10T05:20:44.016Z,14.80
2023-05-10T05:21:44.221Z,14.78
2023-05-10T05:22:44.576Z,14.84
2023-05-10T05:23:44.781Z,14.86
2023-05-10T05:24:45.097Z,14.86
2023-05-10T05:25:45.454Z,14.86
2023-05-10T05:26:45.817Z,14.86
2023-05-10T05:27:46.086Z,14.91
2023-05-10T05:28:46.230Z,14.91
2023-05-10T05:29:46.515Z,14.93
2023-05-10T05:30:46.830Z,14.91
2023-05-10T05:31:47.247Z,14.84
2023-05-10T05:32:47.889Z,14.83
2023-05-10T05:33:47.676Z,14.83
2023-05-10T05:34:48.000Z,14.86
2023-05-10T05:35:48.237Z,14.83
2023-05-10T05:36:48.468Z,14.78
2023-05-10T05:37:48.932Z,14.80
2023-05-10T05:38:49.099Z,14.69
2023-05-10T05:39:49.378Z,14.72
2023-05-10T05:40:49.559Z,14.72
2023-05-10T05:41:49.779Z,14.71
2023-05-10T05:42:50.198Z,14.74
2023-05-10T05:43:50.393Z,14.67
2023-05-10T05:44:50.784Z,14.65
2023-05-10T05:45:50.809Z,14.69
2023-05-10T05:46:51.133Z,14.74
2023-05-10T05:47:51.537Z,14.75
2023-05-10T05:48:51.812Z,14.74
2023-05-10T05:49:52.428Z,14.78
2023-05-10T05:50:52.280Z,14.83
2023-05-10T05:51:52.745Z,14.83
2023-05-10T05:52:52.890Z,14.86
2023-05-10T05:53:53.292Z,14.87
2023-05-10T05:54:53.468Z,14.91
2023-05-10T05:55:53.770Z,14.91
2023-05-10T05:56:53.932Z,14.88
2023-05-10T05:57:54.226Z,14.87
2023-05-10T05:58:54.610Z,14.95
2023-05-10T05:59:54.983Z,14.95
2023-05-10T06:00:55.216Z,15.03
2023-05-10T06:01:55.419Z,15.05
2023-05-10T06:02:55.844Z,15.09
2023-05-10T06:03:56.071Z,15.11
2023-05-10T06:04:56.296Z,15.15
2023-05-10T06:05:56.491Z,15.13
2023-05-10T06:06:56.793Z,15.06
2023-05-10T06:07:57.103Z,15.09
2023-05-10T06:08:57.526Z,15.15
2023-05-10T06:09:57.738Z,15.20
2023-05-10T06:10:58.001Z,15.23
2023-05-10T06:11:58.272Z,15.23
2023-05-10T06:12:58.489Z,15.26
2023-05-10T06:13:58.698Z,15.24
2023-05-10T06:14:58.912Z,15.26
2023-05-10T06:15:59.260Z,15.31
2023-05-10T06:16:59.503Z,15.36
2023-05-10T06:17:59.736Z,15.39
2023-05-10T06:19:00.910Z,15.43
2023-05-10T06:20:00.287Z,15.48
2023-05-10T06:21:00.622Z,15.52
2023-05-10T06:22:01.011Z,15.52
2023-05-10T06:23:01.212Z,15.57
2023-05-10T06:24:01.634Z,15.63
2023-05-10T06:25:01.834Z,15.61
2023-05-10T06:26:02.190Z,15.63
2023-05-10T06:27:02.602Z,15.72
2023-05-10T06:28:02.763Z,15.70
2023-05-10T06:29:03.170Z,15.64
2023-05-10T06:30:12.313Z,15.64
2023-05-10T06:31:04.804Z,15.63
2023-05-10T06:32:04.043Z,15.68
2023-05-10T06:33:04.302Z,15.61
2023-05-10T06:34:04.736Z,15.56
2023-05-10T06:35:04.876Z,15.48
2023-05-10T06:36:05.296Z,15.46
2023-05-10T06:37:05.692Z,15.52
2023-05-10T06:38:05.799Z,15.56
2023-05-10T06:39:06.138Z,15.61
2023-05-10T06:40:06.496Z,15.68
2023-05-10T06:41:06.678Z,15.75
2023-05-10T06:42:06.967Z,15.75
2023-05-10T06:43:07.213Z,15.74
2023-05-10T06:44:07.584Z,15.70
2023-05-10T06:45:08.756Z,15.72
2023-05-10T06:46:08.192Z,15.74
2023-05-10T06:47:08.369Z,15.72
2023-05-10T06:48:08.684Z,15.74
2023-05-10T06:49:08.837Z,15.79
2023-05-10T06:50:09.190Z,15.81
2023-05-10T06:51:09.652Z,15.82
2023-05-10T06:52:09.879Z,15.82
2023-05-10T06:53:10.063Z,15.79
2023-05-10T06:54:10.279Z,15.81
2023-05-10T06:55:10.686Z,15.82
2023-05-10T06:56:10.948Z,15.81
2023-05-10T06:57:23.402Z,15.74
2023-05-10T06:58:12.505Z,15.67
2023-05-10T06:59:11.949Z,15.68
2023-05-10T07:00:12.103Z,15.70
2023-05-10T07:01:12.388Z,15.72
2023-05-10T07:02:12.668Z,15.70
2023-05-10T07:03:12.971Z,15.75
2023-05-10T07:04:13.138Z,15.79
2023-05-10T07:05:13.450Z,15.88
2023-05-10T07:06:29.485Z,15.99
2023-05-10T07:07:15.035Z,16.07
2023-05-10T07:08:14.333Z,16.11
2023-05-10T07:09:14.684Z,16.12
2023-05-10T07:10:15.896Z,16.23
2023-05-10T07:11:15.156Z,16.25
2023-05-10T07:12:16.017Z,16.30
2023-05-10T07:13:15.721Z,16.25
2023-05-10T07:14:16.319Z,16.23
2023-05-10T07:15:16.429Z,16.25
2023-05-10T07:16:16.868Z,16.25
2023-05-10T07:17:16.822Z,16.26
2023-05-10T07:18:17.141Z,16.31
2023-05-10T07:19:17.366Z,16.33
2023-05-10T07:20:17.570Z,16.37
2023-05-10T07:21:17.993Z,16.38
2023-05-10T07:22:18.234Z,16.38
2023-05-10T07:23:18.517Z,16.33
2023-05-10T07:24:18.816Z,16.34
2023-05-10T07:25:19.247Z,16.35
2023-05-10T07:26:19.442Z,16.38
2023-05-10T07:27:19.614Z,16.40
2023-05-10T07:28:19.992Z,16.52
2023-05-10T07:29:20.246Z,16.55
2023-05-10T07:30:20.480Z,16.63
2023-05-10T07:31:20.894Z,16.74
2023-05-10T07:32:21.168Z,16.80
2023-05-10T07:33:21.514Z,16.77
2023-05-10T07:34:21.801Z,16.77
2023-05-10T07:35:22.093Z,16.77
2023-05-10T07:36:22.266Z,16.86
2023-05-10T07:37:22.714Z,16.89
2023-05-10T07:38:22.970Z,16.90
2023-05-10T07:39:27.630Z,16.90
2023-05-10T07:40:23.465Z,16.96
2023-05-10T07:41:23.738Z,16.98
2023-05-10T07:42:23.935Z,16.67
2023-05-10T07:43:24.251Z,16.58
2023-05-10T07:44:24.680Z,16.62
2023-05-10T07:45:24.911Z,16.68
2023-05-10T07:46:25.137Z,16.83
2023-05-10T07:47:25.466Z,16.92
2023-05-10T07:48:25.716Z,16.92
2023-05-10T07:49:26.015Z,16.71
2023-05-10T07:50:26.340Z,16.81
2023-05-10T07:51:26.496Z,16.96
2023-05-10T07:52:26.963Z,16.98
2023-05-10T07:53:27.174Z,16.86
2023-05-10T07:54:27.381Z,16.88
2023-05-10T07:55:27.709Z,16.98
2023-05-10T07:56:27.882Z,17.06
2023-05-10T07:57:28.670Z,17.03
2023-05-10T07:58:28.444Z,16.88
2023-05-10T07:59:28.729Z,16.95
2023-05-10T08:00:29.077Z,17.06
2023-05-10T08:01:29.403Z,17.13
2023-05-10T08:02:29.962Z,17.11
2023-05-10T08:03:30.135Z,17.10
2023-05-10T08:04:30.403Z,17.08
2023-05-10T08:05:30.728Z,17.08
2023-05-10T08:06:31.188Z,16.99
2023-05-10T08:07:31.403Z,16.74
2023-05-10T08:08:31.585Z,16.56
2023-05-10T08:09:31.725Z,16.58
2023-05-10T08:10:32.090Z,16.58
2023-05-10T08:11:33.705Z,16.56
2023-05-10T08:12:32.664Z,16.62
2023-05-10T08:13:32.924Z,16.67
2023-05-10T08:14:33.082Z,16.75
2023-05-10T08:15:33.545Z,16.73
2023-05-10T08:16:34.602Z,16.68
2023-05-10T08:17:33.945Z,16.74
2023-05-10T08:18:34.357Z,16.81
2023-05-10T08:19:34.570Z,16.80
2023-05-10T08:20:34.763Z,16.85
2023-05-10T08:21:35.085Z,16.88
2023-05-10T08:22:35.513Z,17.00
2023-05-10T08:23:35.687Z,17.15
2023-05-10T08:24:36.016Z,17.33
2023-05-10T08:25:37.217Z,17.47
2023-05-10T08:26:36.645Z,17.57
2023-05-10T08:27:36.947Z,17.69
2023-05-10T08:28:38.122Z,17.74
2023-05-10T08:29:48.984Z,17.78
2023-05-10T08:30:38.831Z,17.69
2023-05-10T08:31:38.066Z,17.63
2023-05-10T08:32:39.622Z,17.62
2023-05-10T08:33:38.734Z,17.62
2023-05-10T08:34:38.902Z,17.55
2023-05-10T08:35:39.222Z,17.50
2023-05-10T08:36:39.712Z,17.48
2023-05-10T08:37:39.855Z,17.54
2023-05-10T08:38:40.135Z,17.55
2023-05-10T08:39:40.400Z,17.55
2023-05-10T08:40:40.662Z,17.44
2023-05-10T08:41:41.105Z,17.22
2023-05-10T08:42:41.140Z,17.10
2023-05-10T08:43:41.586Z,17.00
2023-05-10T08:44:41.703Z,16.99
2023-05-10T08:45:42.039Z,16.98
2023-05-10T08:46:42.412Z,16.98
2023-05-10T08:47:42.734Z,17.06
2023-05-10T08:48:42.874Z,17.11
2023-05-10T08:49:44.197Z,17.15
2023-05-10T08:50:43.501Z,17.17
2023-05-10T08:51:44.247Z,17.10
2023-05-10T08:52:44.314Z,17.10
2023-05-10T08:53:44.427Z,17.15
2023-05-10T08:54:44.613Z,17.26
2023-05-10T08:55:44.899Z,17.33
2023-05-10T08:56:45.167Z,17.36
2023-05-10T08:57:45.423Z,17.15
2023-05-10T08:58:45.670Z,16.98
2023-05-10T08:59:45.839Z,16.98
2023-05-10T09:00:46.177Z,16.98
2023-05-10T09:01:46.418Z,16.93
2023-05-10T09:02:46.707Z,16.88
2023-05-10T09:03:46.945Z,16.85
2023-05-10T09:04:47.377Z,16.81
2023-05-10T09:05:48.524Z,16.81
2023-05-10T09:06:47.873Z,16.78
2023-05-10T09:07:48.219Z,16.78
2023-05-10T09:08:48.508Z,16.85
2023-05-10T09:09:48.743Z,16.88
2023-05-10T09:10:48.967Z,16.88
2023-05-10T09:11:49.339Z,16.89
2023-05-10T09:12:49.683Z,16.93
2023-05-10T09:13:49.881Z,16.95
2023-05-10T09:14:50.298Z,16.92
2023-05-10T09:15:50.512Z,16.86
2023-05-10T09:16:50.912Z,16.81
2023-05-10T09:17:51.135Z,16.78
2023-05-10T09:18:52.331Z,16.77
2023-05-10T09:19:51.682Z,16.77
2023-05-10T09:20:52.034Z,16.77
2023-05-10T09:21:52.305Z,16.85
2023-05-10T09:22:52.506Z,16.96
2023-05-10T09:23:52.718Z,17.04
2023-05-10T09:24:53.041Z,17.07
2023-05-10T09:25:53.372Z,17.10
2023-05-10T09:26:53.713Z,17.20
2023-05-10T09:27:54.029Z,17.36
2023-05-10T09:28:54.251Z,17.48
2023-05-10T09:29:54.455Z,17.43
2023-05-10T09:30:54.967Z,17.51
2023-05-10T09:31:55.284Z,17.54
2023-05-10T09:32:55.545Z,17.62
2023-05-10T09:33:55.715Z,17.74
2023-05-10T09:34:56.062Z,17.84
2023-05-10T09:35:56.470Z,17.79
2023-05-10T09:36:56.682Z,17.95
2023-05-10T09:37:57.007Z,18.07
2023-05-10T09:38:57.167Z,18.18
2023-05-10T09:39:57.526Z,18.27
2023-05-10T09:40:57.800Z,18.22
2023-05-10T09:41:58.082Z,18.24
2023-05-10T09:42:58.285Z,18.09
2023-05-10T09:43:58.567Z,18.06
2023-05-10T09:44:58.758Z,17.99
2023-05-10T09:45:59.137Z,17.92
2023-05-10T09:46:59.318Z,17.78
2023-05-10T09:47:59.847Z,17.71
2023-05-10T09:48:59.993Z,17.57
2023-05-10T09:50:00.440Z,17.38
2023-05-10T09:51:00.661Z,17.26
2023-05-10T09:52:00.976Z,17.17
2023-05-10T09:53:01.446Z,16.95
2023-05-10T09:54:01.594Z,16.80
2023-05-10T09:55:01.962Z,16.81
2023-05-10T09:56:02.239Z,16.78
2023-05-10T09:57:02.489Z,16.77
2023-05-10T09:58:02.819Z,16.77
2023-05-10T09:59:03.020Z,16.80
2023-05-10T10:00:03.429Z,16.85
2023-05-10T10:01:03.678Z,16.92
2023-05-10T10:02:03.969Z,16.96
2023-05-10T10:03:04.258Z,16.99
2023-05-10T10:04:04.629Z,16.96
2023-05-10T10:05:05.103Z,17.06
2023-05-10T10:06:05.298Z,17.06
2023-05-10T10:07:05.472Z,17.06
2023-05-10T10:08:05.714Z,17.03
2023-05-10T10:09:05.923Z,16.98
2023-05-10T10:10:06.176Z,17.00
2023-05-10T10:11:06.602Z,17.11
2023-05-10T10:12:07.809Z,17.15
2023-05-10T10:13:07.138Z,17.26
2023-05-10T10:14:07.345Z,17.38
2023-05-10T10:15:07.918Z,17.41
2023-05-10T10:16:08.109Z,17.35
2023-05-10T10:17:09.083Z,17.46
2023-05-10T10:18:09.071Z,17.53
2023-05-10T10:19:09.495Z,17.63
2023-05-10T10:20:11.722Z,17.88
2023-05-10T10:21:09.582Z,18.18
2023-05-10T10:22:09.754Z,18.17
2023-05-10T10:23:10.504Z,18.18
2023-05-10T10:24:10.477Z,18.09
2023-05-10T10:25:10.668Z,18.21
2023-05-10T10:26:11.055Z,18.39
2023-05-10T10:27:11.167Z,18.72
2023-05-10T10:28:11.549Z,18.79
2023-05-10T10:29:11.734Z,18.90
2023-05-10T10:30:12.155Z,19.01
2023-05-10T10:31:12.478Z,19.06
2023-05-10T10:32:13.517Z,19.06
2023-05-10T10:33:20.624Z,18.94
2023-05-10T10:34:14.079Z,18.90
2023-05-10T10:35:13.386Z,18.74
2023-05-10T10:36:13.774Z,18.67
2023-05-10T10:37:14.023Z,18.68
2023-05-10T10:38:14.265Z,18.72
2023-05-10T10:39:14.686Z,18.65
2023-05-10T10:40:14.982Z,18.70
2023-05-10T10:41:15.296Z,18.73
2023-05-10T10:42:15.464Z,18.86
2023-05-10T10:43:15.676Z,18.97
2023-05-10T10:44:16.018Z,19.01
2023-05-10T10:45:16.486Z,19.06
2023-05-10T10:46:17.100Z,19.25
2023-05-10T10:47:16.759Z,19.58
2023-05-10T10:48:17.107Z,19.95
2023-05-10T10:49:17.453Z,20.39
2023-05-10T10:50:17.687Z,20.79
2023-05-10T10:51:18.095Z,21.06
2023-05-10T10:52:18.290Z,21.35
2023-05-10T10:53:18.582Z,21.56
2023-05-10T10:54:18.784Z,21.59
2023-05-10T10:55:19.617Z,21.85
2023-05-10T10:56:19.424Z,22.01
2023-05-10T10:57:19.746Z,22.04
2023-05-10T10:58:20.035Z,22.16
2023-05-10T10:59:20.502Z,22.14
2023-05-10T11:00:20.683Z,22.28
2023-05-10T11:01:20.942Z,21.83
2023-05-10T11:02:21.128Z,21.74
2023-05-10T11:03:21.520Z,21.97
2023-05-10T11:04:21.785Z,21.76
2023-05-10T11:05:22.065Z,21.79
2023-05-10T11:06:22.323Z,21.66
2023-05-10T11:07:22.493Z,21.82
2023-05-10T11:08:23.015Z,21.90
2023-05-10T11:09:23.150Z,21.41
2023-05-10T11:10:23.585Z,20.98
2023-05-10T11:11:23.964Z,21.08
2023-05-10T11:12:24.044Z,21.26
2023-05-10T11:13:24.299Z,21.42
2023-05-10T11:14:24.505Z,21.51
2023-05-10T11:15:24.890Z,21.30
2023-05-10T11:16:25.285Z,21.60
2023-05-10T11:17:25.578Z,21.90
2023-05-10T11:18:25.842Z,21.91
2023-05-10T11:19:26.954Z,21.67
2023-05-10T11:20:26.276Z,21.92
2023-05-10T11:21:26.591Z,21.88
2023-05-10T11:22:27.324Z,21.83
2023-05-10T11:23:27.988Z,21.69
2023-05-10T11:24:27.504Z,21.56
2023-05-10T11:25:27.853Z,21.81
2023-05-10T11:26:27.987Z,22.19
2023-05-10T11:27:28.348Z,22.44
2023-05-10T11:28:28.643Z,22.92
2023-05-10T11:29:28.882Z,23.27
2023-05-10T11:30:29.111Z,22.82
2023-05-10T11:31:29.578Z,22.32
2023-05-10T11:32:29.760Z,22.32
2023-05-10T11:33:30.043Z,22.23
2023-05-10T11:34:30.283Z,22.25
2023-05-10T11:35:30.527Z,21.78
2023-05-10T11:36:30.805Z,21.74
2023-05-10T11:37:31.134Z,21.91
2023-05-10T11:38:31.350Z,21.71
2023-05-10T11:39:31.574Z,21.72
2023-05-10T11:40:31.953Z,21.76
2023-05-10T11:41:32.170Z,21.64
2023-05-10T11:42:32.522Z,21.61
2023-05-10T11:43:32.809Z,21.75
2023-05-10T11:44:32.974Z,21.76
2023-05-10T11:45:33.410Z,21.75
2023-05-10T11:46:33.732Z,21.71
2023-05-10T11:47:33.984Z,21.57
2023-05-10T11:48:34.142Z,21.50
2023-05-10T11:49:34.545Z,21.39
2023-05-10T11:50:34.878Z,21.36
2023-05-10T11:51:35.035Z,21.26
2023-05-10T11:52:35.331Z,21.19
2023-05-10T11:53:35.694Z,20.87
2023-05-10T11:54:35.882Z,20.80
2023-05-10T11:55:36.138Z,20.80
2023-05-10T11:56:36.342Z,20.83
2023-05-10T11:57:36.920Z,20.56
2023-05-10T11:58:36.946Z,20.38
2023-05-10T11:59:37.249Z,20.24
2023-05-10T12:00:38.535Z,20.12
2023-05-10T12:01:37.954Z,20.10
2023-05-10T12:02:38.303Z,20.05
2023-05-10T12:03:38.703Z,19.90
2023-05-10T12:04:38.943Z,19.70
2023-05-10T12:05:39.734Z,19.70
2023-05-10T12:06:39.344Z,19.72
2023-05-10T12:07:39.718Z,19.78
2023-05-10T12:08:40.371Z,19.79
2023-05-10T12:09:44.125Z,19.76
2023-05-10T12:10:40.657Z,19.73
2023-05-10T12:11:43.528Z,19.75
2023-05-10T12:12:41.123Z,19.72
2023-05-10T12:13:41.438Z,19.66
2023-05-10T12:14:41.812Z,19.78
2023-05-10T12:15:42.069Z,19.79
2023-05-10T12:16:43.277Z,19.40
2023-05-10T12:17:43.541Z,19.50
2023-05-10T12:18:42.857Z,19.48
2023-05-10T12:19:43.217Z,19.58
2023-05-10T12:20:43.403Z,19.66
2023-05-10T12:21:43.733Z,19.75
2023-05-10T12:22:44.122Z,19.58
2023-05-10T12:23:44.370Z,19.20
2023-05-10T12:24:44.748Z,19.18
2023-05-10T12:25:44.969Z,19.39
2023-05-10T12:26:45.164Z,19.57
2023-05-10T12:27:45.443Z,19.61
2023-05-10T12:28:45.639Z,19.58
2023-05-10T12:29:45.942Z,19.28
2023-05-10T12:30:46.280Z,19.33
2023-05-10T12:31:46.533Z,19.14
2023-05-10T12:32:46.826Z,18.94
2023-05-10T12:33:47.101Z,18.79
2023-05-10T12:34:47.300Z,18.90
2023-05-10T12:35:47.573Z,19.18
2023-05-10T12:36:48.768Z,19.33
2023-05-10T12:37:48.186Z,19.53
2023-05-10T12:38:48.561Z,19.60
2023-05-10T12:39:48.744Z,19.58
2023-05-10T12:40:49.025Z,19.72
2023-05-10T12:41:49.267Z,19.87
2023-05-10T12:42:49.783Z,20.06
2023-05-10T12:43:49.855Z,20.06
2023-05-10T12:44:50.084Z,19.91
2023-05-10T12:45:50.390Z,19.76
2023-05-10T12:46:50.710Z,19.54
2023-05-10T12:47:51.017Z,19.21
2023-05-10T12:48:57.593Z,19.20
2023-05-10T12:49:52.501Z,19.18
2023-05-10T12:50:51.759Z,19.25
2023-05-10T12:51:52.031Z,19.33
2023-05-10T12:52:52.183Z,19.46
2023-05-10T12:53:52.604Z,19.51
2023-05-10T12:54:52.864Z,19.61
2023-05-10T12:55:53.036Z,19.50
2023-05-10T12:56:53.425Z,19.55
2023-05-10T12:57:53.684Z,19.58
2023-05-10T12:58:53.866Z,19.70
2023-05-10T12:59:54.309Z,19.57
2023-05-10T13:00:54.547Z,19.73